River Falls, Wisconsin
Current Conditions -  °F | °C
As of 6:51 AM on Wednesday 26 Nov 2014 (Local Time) from K21D Reporting Station
Light Snow Light Snow  
Wind Chill: -7°   Ceiling: 3100
Heat Index: -4°   Visibility: 7mi
Dew Point: -7°   Wind: 5mph
Humidity: 80%   Direction: 60°ENE
Pressure: 30.09"   Gusts: NA
Location:  44.85°N, 92.63°W
Report Text: K21D 261251Z AUTO 06004KT 7SM -SN SCT017 BKN031 OVC041 M04/M07 A3009 RMK AO2
Loading
Personal Weather Stations






























Interactive Weather Map New forecast layout! Learn more

10-Day Weather Forecast

Advertisements
Track Severe Weather on mobile